createdAt,value
2022-09-02T00:02:10.001Z,13.20
2022-09-02T00:04:39.884Z,13.20
2022-09-02T00:07:09.977Z,13.20
2022-09-02T00:09:40.649Z,13.20
2022-09-02T00:12:12.782Z,13.10
2022-09-02T00:14:41.827Z,13.10
2022-09-02T00:17:09.948Z,13.10
2022-09-02T00:19:41.310Z,13.00
2022-09-02T00:22:10.957Z,13.00
2022-09-02T00:24:40.406Z,13.00
2022-09-02T00:27:08.938Z,13.10
2022-09-02T00:29:38.530Z,13.00
2022-09-02T00:32:10.691Z,12.90
2022-09-02T00:34:39.054Z,13.00
2022-09-02T00:37:07.844Z,12.90
2022-09-02T00:39:37.931Z,12.90
2022-09-02T00:42:09.884Z,12.90
2022-09-02T00:44:38.430Z,12.80
2022-09-02T00:47:06.600Z,12.80
2022-09-02T00:49:39.749Z,12.70
2022-09-02T00:52:12.859Z,12.70
2022-09-02T00:54:49.000Z,12.70
2022-09-02T00:57:23.448Z,12.70
2022-09-02T01:00:02.961Z,12.70
2022-09-02T01:02:32.872Z,12.60
2022-09-02T01:05:04.004Z,12.60
2022-09-02T01:07:35.046Z,12.60
2022-09-02T01:10:08.746Z,12.60
2022-09-02T01:12:37.959Z,12.60
2022-09-02T01:15:09.569Z,12.60
2022-09-02T01:17:40.417Z,12.60
2022-09-02T01:20:12.970Z,12.50
2022-09-02T01:22:46.830Z,12.50
2022-09-02T01:25:19.143Z,12.40
2022-09-02T01:27:49.010Z,12.40
2022-09-02T01:30:23.325Z,12.40
2022-09-02T01:32:53.663Z,12.30
2022-09-02T01:35:21.966Z,12.20
2022-09-02T01:37:55.767Z,12.20
2022-09-02T01:40:27.062Z,12.20
2022-09-02T01:42:58.088Z,12.20
2022-09-02T01:45:26.843Z,12.20
2022-09-02T01:47:55.643Z,12.20
2022-09-02T01:50:23.980Z,12.20
2022-09-02T01:52:54.970Z,12.20
2022-09-02T01:55:23.221Z,12.20
2022-09-02T01:57:53.008Z,12.10
2022-09-02T02:00:26.065Z,12.10
2022-09-02T02:02:55.981Z,12.00
2022-09-02T02:05:24.971Z,12.00
2022-09-02T02:07:55.991Z,12.00
2022-09-02T02:10:27.725Z,12.00
2022-09-02T02:12:56.024Z,12.00
2022-09-02T02:17:52.985Z,12.00
2022-09-02T02:20:23.003Z,12.00
2022-09-02T02:22:54.634Z,12.00
2022-09-02T02:25:24.987Z,11.90
2022-09-02T02:27:55.673Z,12.00
2022-09-02T02:30:28.574Z,11.90
2022-09-02T02:32:58.006Z,12.00
2022-09-02T02:35:28.097Z,11.90
2022-09-02T02:37:58.057Z,11.90
2022-09-02T02:40:32.967Z,11.90
2022-09-02T02:43:02.025Z,11.80
2022-09-02T02:45:30.239Z,11.70
2022-09-02T02:47:58.475Z,11.70
2022-09-02T02:50:27.116Z,11.70
2022-09-02T02:52:58.633Z,11.70
2022-09-02T02:55:27.149Z,11.60
2022-09-02T02:57:59.006Z,11.60
2022-09-02T03:00:33.624Z,11.60
2022-09-02T03:03:06.509Z,11.60
2022-09-02T03:05:40.466Z,11.60
2022-09-02T03:08:12.020Z,11.60
2022-09-02T03:10:42.920Z,11.50
2022-09-02T03:13:14.541Z,11.50
2022-09-02T03:15:43.743Z,11.40
2022-09-02T03:18:12.645Z,11.40
2022-09-02T03:20:41.011Z,11.40
2022-09-02T03:23:13.219Z,11.40
2022-09-02T03:25:48.953Z,11.40
2022-09-02T03:28:33.144Z,11.30
2022-09-02T03:31:05.585Z,11.20
2022-09-02T03:33:34.047Z,11.20
2022-09-02T03:36:02.952Z,11.30
2022-09-02T03:38:32.050Z,11.10
2022-09-02T03:41:00.949Z,11.10
2022-09-02T03:43:33.479Z,11.10
2022-09-02T03:46:01.705Z,11.00
2022-09-02T03:48:30.482Z,11.00
2022-09-02T03:50:58.826Z,11.00
2022-09-02T03:53:28.051Z,11.00
2022-09-02T03:55:59.669Z,11.00
2022-09-02T03:58:30.718Z,11.00
2022-09-02T04:01:01.180Z,11.00
2022-09-02T04:03:29.947Z,11.00
2022-09-02T04:05:58.401Z,11.00
2022-09-02T04:08:30.492Z,11.00
2022-09-02T04:11:06.899Z,10.90
2022-09-02T04:13:38.622Z,11.00
2022-09-02T04:16:08.177Z,11.00
2022-09-02T04:18:39.649Z,10.90
2022-09-02T04:21:08.049Z,11.00
2022-09-02T04:23:38.494Z,10.90
2022-09-02T04:26:07.787Z,11.00
2022-09-02T04:28:37.263Z,11.00
2022-09-02T04:31:06.714Z,11.00
2022-09-02T04:33:35.288Z,11.00
2022-09-02T04:36:07.842Z,11.10
2022-09-02T04:38:36.780Z,11.10
2022-09-02T04:41:08.736Z,11.10
2022-09-02T04:43:41.369Z,11.10
2022-09-02T04:46:14.568Z,11.10
2022-09-02T04:48:49.500Z,11.20
2022-09-02T04:51:20.912Z,11.20
2022-09-02T04:53:52.668Z,11.20
2022-09-02T04:56:24.283Z,11.30
2022-09-02T04:58:57.010Z,11.40
2022-09-02T05:01:28.016Z,11.40
2022-09-02T05:03:59.691Z,11.40
2022-09-02T05:06:35.043Z,11.40
2022-09-02T05:09:06.042Z,11.50
2022-09-02T05:11:36.702Z,11.50
2022-09-02T05:14:09.063Z,11.60
2022-09-02T05:16:41.339Z,11.60
2022-09-02T05:19:15.549Z,11.70
2022-09-02T05:21:51.038Z,11.80
2022-09-02T05:24:27.037Z,11.90
2022-09-02T05:26:59.169Z,12.00
2022-09-02T05:29:29.993Z,12.00
2022-09-02T05:31:59.074Z,12.00
2022-09-02T05:34:29.015Z,12.10
2022-09-02T05:37:00.177Z,12.10
2022-09-02T05:39:31.412Z,12.20
2022-09-02T05:42:00.773Z,12.20
2022-09-02T05:44:34.180Z,12.30
2022-09-02T05:47:07.337Z,12.30
2022-09-02T05:49:35.397Z,12.40
2022-09-02T05:52:14.314Z,12.50
2022-09-02T05:57:40.496Z,12.60
2022-09-02T06:00:18.135Z,12.70
2022-09-02T06:02:56.031Z,12.80
2022-09-02T06:05:38.377Z,12.80
2022-09-02T06:08:17.018Z,12.90
2022-09-02T06:10:48.016Z,12.90
2022-09-02T06:13:22.833Z,13.00
2022-09-02T06:15:56.159Z,13.10
2022-09-02T06:18:28.161Z,13.10
2022-09-02T06:20:59.167Z,13.20
2022-09-02T06:23:34.713Z,13.30
2022-09-02T06:26:04.035Z,13.40
2022-09-02T06:28:36.188Z,13.40
2022-09-02T06:31:11.071Z,13.50
2022-09-02T06:33:42.991Z,13.60
2022-09-02T06:36:14.118Z,13.60
2022-09-02T06:38:45.956Z,13.70
2022-09-02T06:41:23.342Z,13.70
2022-09-02T06:43:54.802Z,13.80
2022-09-02T06:46:32.266Z,13.90
2022-09-02T06:49:08.496Z,13.90
2022-09-02T06:51:39.659Z,14.00
2022-09-02T06:54:11.141Z,14.10
2022-09-02T06:56:49.413Z,14.10
2022-09-02T06:59:24.017Z,14.20
2022-09-02T07:01:58.123Z,14.20
2022-09-02T07:04:45.917Z,14.30
2022-09-02T07:07:21.043Z,14.30
2022-09-02T07:09:57.941Z,14.40
2022-09-02T07:12:27.925Z,14.50
2022-09-02T07:15:07.174Z,14.50
2022-09-02T07:17:41.113Z,14.50
2022-09-02T07:20:16.100Z,14.60
2022-09-02T07:22:58.435Z,14.70
2022-09-02T07:25:30.187Z,14.70
2022-09-02T07:28:01.705Z,14.80
2022-09-02T07:30:33.690Z,14.80
2022-09-02T07:33:10.236Z,14.90
2022-09-02T07:35:38.496Z,14.90
2022-09-02T07:38:09.184Z,15.00
2022-09-02T07:40:40.066Z,15.00
2022-09-02T07:43:13.095Z,15.00
2022-09-02T07:45:44.183Z,15.10
2022-09-02T07:48:15.927Z,15.10
2022-09-02T07:50:46.046Z,15.20
2022-09-02T07:53:18.236Z,15.20
2022-09-02T07:55:48.212Z,15.30
2022-09-02T07:58:22.450Z,15.30
2022-09-02T08:00:52.892Z,15.40
2022-09-02T08:03:23.528Z,15.40
2022-09-02T08:05:57.460Z,15.50
2022-09-02T08:08:28.324Z,15.50
2022-09-02T08:10:57.334Z,15.60
2022-09-02T08:13:29.550Z,15.60
2022-09-02T08:15:58.470Z,15.60
2022-09-02T08:18:27.812Z,15.70
2022-09-02T08:20:55.919Z,15.70
2022-09-02T08:23:36.754Z,15.70
2022-09-02T08:26:06.577Z,15.80
2022-09-02T08:28:35.262Z,15.80
2022-09-02T08:31:06.951Z,15.90
2022-09-02T08:33:36.671Z,16.00
2022-09-02T08:36:08.432Z,16.00
2022-09-02T08:38:42.643Z,16.00
2022-09-02T08:41:20.199Z,16.10
2022-09-02T08:43:51.232Z,16.10
2022-09-02T08:46:25.850Z,16.10
2022-09-02T08:49:00.375Z,16.20
2022-09-02T08:51:37.126Z,16.20
2022-09-02T08:54:09.056Z,16.30
2022-09-02T08:56:37.235Z,16.30
2022-09-02T08:59:07.304Z,16.40
2022-09-02T09:01:46.343Z,16.30
2022-09-02T09:04:23.827Z,16.40
2022-09-02T09:07:07.087Z,16.50
2022-09-02T09:09:48.901Z,16.60
2022-09-02T09:12:25.190Z,16.70
2022-09-02T09:14:59.155Z,16.70
2022-09-02T09:17:34.197Z,16.70
2022-09-02T09:20:10.040Z,16.70
2022-09-02T09:22:44.221Z,16.80
2022-09-02T09:25:16.079Z,16.80
2022-09-02T09:27:49.265Z,16.80
2022-09-02T09:30:17.311Z,16.90
2022-09-02T09:32:48.913Z,17.00
2022-09-02T09:35:19.666Z,17.00
2022-09-02T09:37:50.822Z,17.00
2022-09-02T09:40:29.169Z,17.00
2022-09-02T09:45:34.839Z,17.10
2022-09-02T09:48:23.829Z,17.10
2022-09-02T09:51:18.201Z,17.20
2022-09-02T09:53:46.887Z,17.20
2022-09-02T09:56:37.237Z,17.30
2022-09-02T09:59:09.962Z,17.30
2022-09-02T10:01:38.603Z,17.40
2022-09-02T10:04:32.232Z,17.40
2022-09-02T10:06:59.573Z,17.40
2022-09-02T10:09:37.364Z,17.50
2022-09-02T10:12:09.226Z,17.60
2022-09-02T10:14:40.766Z,17.70
2022-09-02T10:17:28.011Z,17.70
2022-09-02T10:20:04.909Z,17.70
2022-09-02T10:22:59.945Z,17.80
2022-09-02T10:25:38.179Z,17.90
2022-09-02T10:28:17.654Z,17.80
2022-09-02T10:30:54.302Z,17.90
2022-09-02T10:33:38.735Z,18.00
2022-09-02T10:36:20.922Z,18.10
2022-09-02T10:38:52.820Z,18.10
2022-09-02T10:44:30.442Z,18.20
2022-09-02T10:47:02.434Z,18.20
2022-09-02T10:50:18.802Z,18.40
2022-09-02T10:53:04.682Z,18.50
2022-09-02T10:55:45.172Z,18.60
2022-09-02T10:58:22.534Z,18.80
2022-09-02T11:00:58.322Z,18.90
2022-09-02T11:03:33.381Z,19.10
2022-09-02T11:06:07.286Z,19.20
2022-09-02T11:08:41.181Z,19.30
2022-09-02T11:11:14.956Z,19.30
2022-09-02T11:14:00.483Z,19.30
2022-09-02T11:16:34.935Z,19.50
2022-09-02T11:19:12.306Z,19.60
2022-09-02T11:21:54.900Z,19.70
2022-09-02T11:24:32.671Z,19.80
2022-09-02T11:27:26.006Z,19.80
2022-09-02T11:30:04.308Z,19.90
2022-09-02T11:32:40.664Z,19.90
2022-09-02T11:35:15.748Z,20.00
2022-09-02T11:37:50.284Z,20.10
2022-09-02T11:40:34.847Z,20.30
2022-09-02T11:43:30.567Z,20.30
2022-09-02T11:46:28.836Z,20.40
2022-09-02T11:49:27.333Z,20.50
2022-09-02T11:52:19.325Z,20.70
2022-09-02T11:54:51.218Z,20.80
2022-09-02T11:57:26.220Z,20.90
2022-09-02T12:00:12.225Z,21.10
2022-09-02T12:02:44.347Z,21.10
2022-09-02T12:05:51.693Z,21.10
2022-09-02T12:09:10.185Z,21.10
2022-09-02T12:11:47.916Z,21.20
2022-09-02T12:15:03.211Z,21.50
2022-09-02T12:18:17.397Z,21.70
2022-09-02T12:21:16.545Z,21.80
2022-09-02T12:24:13.323Z,22.10
2022-09-02T12:27:05.899Z,22.00
2022-09-02T12:29:36.224Z,22.00
2022-09-02T12:32:06.027Z,22.20
2022-09-02T12:34:57.658Z,22.30
2022-09-02T12:37:54.152Z,22.50
2022-09-02T12:40:41.617Z,22.70
2022-09-02T12:43:26.243Z,22.70
2022-09-02T12:46:01.719Z,22.80
2022-09-02T12:48:42.205Z,23.00
2022-09-02T12:51:12.361Z,23.00
2022-09-02T12:53:44.409Z,22.90
2022-09-02T12:56:23.400Z,22.80
2022-09-02T12:58:58.932Z,22.60
2022-09-02T13:01:43.477Z,22.50
2022-09-02T13:04:29.345Z,22.30
2022-09-02T13:07:32.368Z,22.20
2022-09-02T13:10:43.370Z,22.20
2022-09-02T13:13:47.578Z,22.20
2022-09-02T13:16:23.031Z,22.50
2022-09-02T13:19:25.588Z,22.70
2022-09-02T13:22:26.517Z,22.90
2022-09-02T13:25:49.365Z,23.00
2022-09-02T13:29:00.342Z,23.10
2022-09-02T13:31:29.048Z,23.30
2022-09-02T13:34:00.484Z,23.50
2022-09-02T13:36:37.414Z,23.70
2022-09-02T13:39:14.987Z,23.90
2022-09-02T13:41:45.345Z,24.30
2022-09-02T13:44:15.051Z,24.80
2022-09-02T13:46:49.255Z,25.20
2022-09-02T13:49:23.339Z,25.90
2022-09-02T13:51:54.578Z,26.80
2022-09-02T13:54:32.200Z,27.60
2022-09-02T13:57:04.119Z,28.80
2022-09-02T13:59:34.983Z,30.20
2022-09-02T14:02:18.512Z,31.10
2022-09-02T14:04:47.192Z,31.50
2022-09-02T14:07:19.021Z,32.20
2022-09-02T14:09:47.627Z,32.70
2022-09-02T14:12:17.279Z,32.40
2022-09-02T14:14:46.382Z,32.40
2022-09-02T14:17:23.184Z,32.50
2022-09-02T14:19:52.430Z,31.90
2022-09-02T14:22:27.491Z,31.10
2022-09-02T14:24:58.407Z,30.10
2022-09-02T14:27:28.389Z,29.20
2022-09-02T14:29:59.331Z,28.90
2022-09-02T14:32:30.376Z,28.70
2022-09-02T14:35:21.347Z,28.70
2022-09-02T14:37:55.979Z,28.80
2022-09-02T14:40:35.335Z,28.60
2022-09-02T14:43:05.958Z,28.00
2022-09-02T14:45:35.641Z,27.60
2022-09-02T14:48:19.395Z,27.10
2022-09-02T14:50:47.564Z,26.90
2022-09-02T14:53:22.589Z,27.20
2022-09-02T14:55:57.646Z,27.60
2022-09-02T14:58:29.179Z,27.80
2022-09-02T15:00:59.852Z,27.80
2022-09-02T15:03:29.498Z,27.90
2022-09-02T15:05:57.998Z,28.00
2022-09-02T15:08:26.193Z,28.10
2022-09-02T15:10:56.284Z,28.10
2022-09-02T15:13:32.527Z,28.00
2022-09-02T15:16:04.341Z,27.70
2022-09-02T15:18:32.409Z,27.40
2022-09-02T15:21:01.443Z,26.50
2022-09-02T15:23:34.925Z,26.00
2022-09-02T15:26:05.416Z,25.50
2022-09-02T15:28:39.327Z,25.10
2022-09-02T15:31:07.668Z,25.00
2022-09-02T15:33:37.506Z,25.30
2022-09-02T15:36:07.660Z,25.50
2022-09-02T15:38:37.644Z,25.70
2022-09-02T15:41:13.687Z,25.80
2022-09-02T15:43:43.700Z,25.90
2022-09-02T15:46:22.404Z,26.20
2022-09-02T15:48:51.358Z,26.40
2022-09-02T15:51:44.870Z,26.50
2022-09-02T15:54:16.565Z,26.50
2022-09-02T15:56:47.792Z,27.30
2022-09-02T15:59:22.629Z,27.20
2022-09-02T16:01:58.662Z,27.00
2022-09-02T16:04:29.720Z,26.80
2022-09-02T16:06:57.895Z,26.50
2022-09-02T16:09:26.303Z,26.40
2022-09-02T16:11:56.171Z,26.30
2022-09-02T16:14:26.622Z,26.00
2022-09-02T16:16:58.040Z,25.90
2022-09-02T16:19:30.227Z,25.80
2022-09-02T16:21:58.777Z,25.70
2022-09-02T16:24:26.804Z,25.50
2022-09-02T16:26:54.796Z,25.20
2022-09-02T16:29:31.200Z,24.90
2022-09-02T16:32:24.600Z,24.80
2022-09-02T16:34:49.177Z,24.70
2022-09-02T16:37:17.595Z,24.40
2022-09-02T16:39:48.627Z,24.20
2022-09-02T16:42:16.818Z,23.90
2022-09-02T16:44:45.496Z,23.60
2022-09-02T16:47:23.849Z,23.20
2022-09-02T16:49:51.970Z,22.80
2022-09-02T16:52:23.660Z,22.50
2022-09-02T16:54:51.892Z,22.20
2022-09-02T16:57:20.542Z,21.80
2022-09-02T16:59:50.459Z,21.60
2022-09-02T17:02:18.962Z,21.40
2022-09-02T17:04:48.606Z,21.30
2022-09-02T17:07:17.611Z,21.20
2022-09-02T17:09:45.846Z,21.10
2022-09-02T17:12:14.680Z,21.00
2022-09-02T17:14:42.812Z,20.80
2022-09-02T17:17:14.976Z,20.70
2022-09-02T17:19:43.088Z,20.60
2022-09-02T17:22:12.926Z,20.60
2022-09-02T17:24:42.082Z,20.50
2022-09-02T17:27:11.167Z,20.40
2022-09-02T17:29:49.505Z,20.20
2022-09-02T17:32:19.461Z,20.00
2022-09-02T17:34:48.537Z,19.90
2022-09-02T17:37:18.278Z,19.80
2022-09-02T17:39:49.694Z,19.70
2022-09-02T17:42:17.442Z,19.60
2022-09-02T17:44:46.560Z,19.50
2022-09-02T17:47:20.774Z,19.40
2022-09-02T17:49:50.600Z,19.30
2022-09-02T17:52:24.357Z,19.20
2022-09-02T17:54:54.082Z,19.10
2022-09-02T17:57:39.115Z,19.00
2022-09-02T18:00:12.125Z,19.00
2022-09-02T18:03:10.902Z,18.80
2022-09-02T18:05:59.066Z,18.80
2022-09-02T18:08:36.407Z,18.70
2022-09-02T18:11:07.456Z,18.70
2022-09-02T18:13:48.106Z,18.60
2022-09-02T18:16:33.328Z,18.60
2022-09-02T18:19:14.394Z,18.50
2022-09-02T18:22:06.547Z,18.50
2022-09-02T18:24:58.190Z,18.40
2022-09-02T18:27:40.552Z,18.30
2022-09-02T18:30:11.752Z,18.30
2022-09-02T18:33:03.091Z,18.20
2022-09-02T18:35:40.676Z,18.20
2022-09-02T18:38:20.255Z,18.10
2022-09-02T18:40:58.644Z,18.10
2022-09-02T18:43:37.149Z,18.10
2022-09-02T18:46:07.651Z,18.10
2022-09-02T18:48:37.470Z,18.10
2022-09-02T18:51:12.925Z,18.00
2022-09-02T18:53:46.161Z,17.90
2022-09-02T18:56:17.348Z,17.90
2022-09-02T18:58:48.320Z,17.80
2022-09-02T19:01:23.987Z,17.80
2022-09-02T19:03:52.388Z,17.80
2022-09-02T19:06:22.909Z,17.80
2022-09-02T19:08:58.701Z,17.70
2022-09-02T19:11:29.375Z,17.60
2022-09-02T19:14:02.110Z,17.60
2022-09-02T19:16:37.467Z,17.50
2022-09-02T19:19:06.781Z,17.50
2022-09-02T19:21:44.330Z,17.40
2022-09-02T19:24:15.586Z,17.40
2022-09-02T19:26:47.054Z,17.40
2022-09-02T19:29:17.588Z,17.20
2022-09-02T19:31:46.857Z,17.20
2022-09-02T19:34:16.356Z,17.10
2022-09-02T19:36:49.289Z,17.10
2022-09-02T19:39:21.572Z,17.00
2022-09-02T19:41:51.103Z,17.00
2022-09-02T19:44:20.046Z,17.00
2022-09-02T19:47:49.712Z,17.00
2022-09-02T19:49:38.858Z,16.90
2022-09-02T19:52:12.630Z,16.90
2022-09-02T19:54:45.169Z,16.80
2022-09-02T19:57:15.556Z,16.80
2022-09-02T19:59:44.680Z,16.70
2022-09-02T20:02:13.674Z,16.70
2022-09-02T20:04:42.333Z,16.70
2022-09-02T20:07:13.615Z,16.60
2022-09-02T20:09:42.205Z,16.60
2022-09-02T20:12:12.526Z,16.50
2022-09-02T20:14:42.049Z,16.50
2022-09-02T20:17:15.534Z,16.50
2022-09-02T20:19:47.401Z,16.50
2022-09-02T20:22:17.809Z,16.40
2022-09-02T20:24:49.651Z,16.40
2022-09-02T20:27:28.655Z,16.40
2022-09-02T20:30:08.985Z,16.40
2022-09-02T20:32:44.634Z,16.30
2022-09-02T20:35:42.573Z,16.30
2022-09-02T20:38:23.285Z,16.20
2022-09-02T20:41:04.480Z,16.20
2022-09-02T20:43:55.690Z,16.20
2022-09-02T20:46:49.722Z,16.10
2022-09-02T20:49:32.686Z,16.10
2022-09-02T20:52:07.691Z,16.00
2022-09-02T20:54:41.668Z,15.90
2022-09-02T20:57:24.669Z,15.90
2022-09-02T21:00:03.034Z,15.90
2022-09-02T21:02:40.634Z,15.90
2022-09-02T21:05:22.886Z,15.80
2022-09-02T21:07:59.681Z,15.80
2022-09-02T21:10:34.569Z,15.70
2022-09-02T21:13:13.360Z,15.70
2022-09-02T21:15:46.012Z,15.60
2022-09-02T21:18:22.636Z,15.50
2022-09-02T21:20:56.680Z,15.50
2022-09-02T21:23:35.397Z,15.40
2022-09-02T21:26:10.707Z,15.40
2022-09-02T21:28:44.670Z,15.30
2022-09-02T21:31:24.062Z,15.20
2022-09-02T21:33:54.560Z,15.20
2022-09-02T21:36:30.367Z,15.10
2022-09-02T21:39:03.912Z,15.10
2022-09-02T21:41:35.732Z,15.00
2022-09-02T21:44:12.517Z,14.90
2022-09-02T21:46:58.128Z,14.90
2022-09-02T21:49:43.906Z,14.80
2022-09-02T21:52:25.341Z,14.70
2022-09-02T21:55:03.192Z,14.70
2022-09-02T21:57:50.068Z,14.70
2022-09-02T22:00:19.297Z,14.60
2022-09-02T22:02:59.030Z,14.60
2022-09-02T22:05:43.959Z,14.50
2022-09-02T22:08:22.754Z,14.40
2022-09-02T22:11:01.968Z,14.40
2022-09-02T22:13:32.026Z,14.40
2022-09-02T22:16:16.474Z,14.30
2022-09-02T22:18:52.359Z,14.30
2022-09-02T22:21:30.495Z,14.30
2022-09-02T22:24:00.761Z,14.20
2022-09-02T22:26:41.006Z,14.20
2022-09-02T22:29:18.263Z,14.20
2022-09-02T22:31:50.319Z,14.20
2022-09-02T22:34:23.794Z,14.10
2022-09-02T22:37:07.938Z,14.10
2022-09-02T22:39:45.550Z,14.00
2022-09-02T22:42:21.320Z,14.00
2022-09-02T22:45:18.304Z,14.00
2022-09-02T22:48:09.257Z,14.00
2022-09-02T22:50:58.239Z,13.80
2022-09-02T22:53:30.721Z,13.80
2022-09-02T22:56:02.935Z,13.80
2022-09-02T22:58:55.683Z,13.80
2022-09-02T23:01:34.515Z,13.70
2022-09-02T23:04:14.715Z,13.80
2022-09-02T23:06:44.877Z,13.80
2022-09-02T23:09:15.817Z,13.80
2022-09-02T23:11:55.719Z,13.70
2022-09-02T23:14:35.618Z,13.60
2022-09-02T23:17:20.490Z,13.70
2022-09-02T23:20:05.653Z,13.60
2022-09-02T23:22:47.700Z,13.60
2022-09-02T23:25:37.732Z,13.50
2022-09-02T23:28:16.707Z,13.50
2022-09-02T23:31:05.543Z,13.50
2022-09-02T23:33:46.108Z,13.40
2022-09-02T23:36:21.575Z,13.30
2022-09-02T23:39:08.461Z,13.30
2022-09-02T23:41:38.967Z,13.20
2022-09-02T23:44:08.751Z,13.20
2022-09-02T23:46:49.079Z,13.20
2022-09-02T23:49:25.521Z,13.10
2022-09-02T23:51:58.422Z,13.10
2022-09-02T23:54:41.742Z,13.10
2022-09-02T23:57:36.438Z,13.10
